.
WxDataArchive / Data Records for 2014-02-04
2014-02-03 February 2014 2014-02-05

Data Records for Tuesday, 04 February 2014

Time	Temp	Chill	HIndex	Humid	Dewpt	 Wind 	HiWind	WindDir	Rain 	Barom 
-----	----	-----	------	-----	-----	------	------	-------	-----	----- 
00:00	7.4	7.4	7.4	84	3.6	0	0	---	0.00	30.422 
00:05	7.2	7.2	7.2	84	3.4	0	0	---	0.00	30.422 
00:10	7.4	7.4	7.4	84	3.6	0	0	---	0.00	30.422 
00:15	7.4	7.4	7.4	84	3.6	0	0	---	0.00	30.417 
00:20	7.4	7.4	7.4	84	3.6	0	0	---	0.00	30.417 
00:25	7.4	7.4	7.4	84	3.6	0	0	---	0.00	30.417 
00:30	7.2	7.2	7.2	84	3.4	0	0	---	0.00	30.406 
00:35	7.4	7.4	7.4	84	3.6	0	0	---	0.00	30.406 
00:40	7.4	7.4	7.4	84	3.6	0	0	---	0.00	30.406 
00:45	7.6	7.6	7.6	84	3.8	0	0	---	0.00	30.405 
00:50	7.6	7.6	7.6	84	3.8	0	0	---	0.00	30.405 
00:55	7.4	7.4	7.4	84	3.6	0	0	---	0.00	30.405 
01:00	7.2	7.2	7.2	84	3.4	0	0	---	0.00	30.406 
01:05	7.0	7.0	7.0	84	3.2	0	0	---	0.00	30.406 
01:10	6.9	6.9	6.9	84	3.1	0	0	---	0.00	30.406 
01:15	6.7	6.7	6.7	84	2.9	0	0	---	0.00	30.405 
01:20	6.7	6.7	6.7	84	2.9	0	0	---	0.00	30.405 
01:25	6.7	6.7	6.7	84	2.9	0	0	---	0.00	30.405 
01:30	6.7	6.7	6.7	84	2.9	0	0	---	0.00	30.406 
01:35	6.5	6.5	6.5	84	2.7	0	0	---	0.00	30.406 
01:40	6.5	6.5	6.5	84	2.7	0	0	---	0.00	30.406 
01:45	6.5	6.5	6.5	84	2.7	0	0	---	0.00	30.403 
01:50	6.5	6.5	6.5	84	2.7	0	0	---	0.00	30.403 
01:55	6.5	6.5	6.5	84	2.7	0	0	---	0.00	30.403 
02:00	6.5	6.5	6.5	84	2.7	0	0	---	0.00	30.402 
02:05	6.7	6.7	6.7	84	2.9	0	0	---	0.00	30.402 
02:10	6.7	6.7	6.7	84	2.9	0	0	---	0.00	30.402 
02:15	6.9	6.9	6.9	84	3.1	0	0	---	0.00	30.405 
02:20	6.9	6.9	6.9	84	3.1	0	0	---	0.00	30.405 
02:25	6.9	6.9	6.9	84	3.1	0	0	---	0.00	30.405 
02:30	6.9	6.9	6.9	84	3.1	0	0	---	0.00	30.401 
02:35	7.0	7.0	7.0	84	3.2	0	0	---	0.00	30.401 
02:40	7.0	7.0	7.0	84	3.2	0	0	---	0.00	30.401 
02:45	7.0	7.0	7.0	84	3.2	0	0	---	0.00	30.415 
02:50	7.0	7.0	7.0	84	3.2	0	0	---	0.00	30.415 
02:55	7.0	7.0	7.0	84	3.2	0	0	---	0.00	30.415 
03:00	7.2	7.2	7.2	84	3.4	0	0	---	0.00	30.408 
03:05	7.2	7.2	7.2	84	3.4	0	0	---	0.00	30.408 
03:10	7.2	7.2	7.2	84	3.4	0	0	---	0.00	30.408 
03:15	7.2	7.2	7.2	84	3.4	0	0	---	0.00	30.403 
03:20	7.2	7.2	7.2	84	3.4	0	0	---	0.00	30.403 
03:25	7.4	7.4	7.4	84	3.6	0	0	---	0.00	30.403 
03:30	7.4	7.4	7.4	84	3.6	0	0	---	0.00	30.401 
03:35	7.6	7.6	7.6	84	3.8	0	0	---	0.00	30.401 
03:40	7.6	7.6	7.6	84	3.8	0	0	---	0.00	30.401 
03:45	7.7	7.7	7.7	84	3.9	0	0	---	0.00	30.409 
03:50	8.1	8.1	8.1	85	4.5	0	0	---	0.00	30.409 
03:55	8.1	8.1	8.1	84	4.3	0	0	---	0.00	30.409 
04:00	8.3	8.3	8.3	85	4.7	0	0	---	0.00	30.414 
04:05	8.4	8.4	8.4	85	4.8	0	0	---	0.00	30.414 
04:10	8.6	8.6	8.6	85	5.0	0	0	---	0.00	30.414 
04:15	8.8	8.8	8.8	85	5.2	0	0	---	0.00	30.434 
04:20	8.8	8.8	8.8	85	5.2	0	0	---	0.00	30.434 
04:25	9.0	9.0	9.0	85	5.4	0	0	---	0.00	30.434 
04:30	9.0	9.0	9.0	85	5.4	0	0	---	0.00	30.435 
04:35	9.2	9.2	9.2	85	5.6	0	0	---	0.00	30.435 
04:40	9.2	9.2	9.2	85	5.6	0	0	---	0.00	30.435 
04:45	9.3	9.3	9.3	85	5.7	0	0	---	0.00	30.435 
04:50	9.5	9.5	9.5	85	5.9	0	0	---	0.00	30.435 
04:55	9.7	9.7	9.7	85	6.1	0	0	---	0.00	30.435 
05:00	9.7	9.7	9.7	85	6.1	0	0	---	0.00	30.447 
05:05	9.7	9.7	9.7	85	6.1	0	0	---	0.00	30.447 
05:10	9.9	9.9	9.9	85	6.3	0	0	---	0.00	30.447 
05:15	9.9	9.9	9.9	85	6.3	0	0	---	0.00	30.452 
05:20	9.9	9.9	9.9	85	6.3	0	0	---	0.00	30.452 
05:25	9.9	9.9	9.9	85	6.3	0	0	---	0.00	30.452 
05:30	9.9	9.9	9.9	85	6.3	0	0	---	0.00	30.453 
05:35	9.9	9.9	9.9	85	6.3	0	0	---	0.00	30.453 
05:40	9.9	9.9	9.9	85	6.3	0	0	---	0.00	30.453 
05:45	10.0	10.0	10.0	85	6.4	0	0	---	0.00	30.448 
05:50	10.0	10.0	10.0	85	6.4	0	0	---	0.00	30.448 
05:55	10.0	10.0	10.0	85	6.4	0	0	---	0.00	30.448 
06:00	10.2	10.2	10.2	85	6.6	0	0	---	0.00	30.441 
06:05	10.2	10.2	10.2	85	6.6	0	0	---	0.00	30.441 
06:10	10.4	10.4	10.4	85	6.8	0	0	---	0.00	30.441 
06:15	10.4	10.4	10.4	85	6.8	0	0	---	0.00	30.444 
06:20	10.5	10.5	10.5	85	6.9	0	0	---	0.00	30.444 
06:25	10.5	10.5	10.5	85	6.9	0	0	---	0.00	30.444 
06:30	10.5	10.5	10.5	85	6.9	0	0	---	0.00	30.433 
06:35	10.5	10.5	10.5	85	6.9	0	0	---	0.00	30.433 
06:40	10.7	10.7	10.7	85	7.1	0	0	---	0.00	30.433 
06:45	10.7	10.7	10.7	85	7.1	0	0	---	0.00	30.426 
06:50	10.9	10.9	10.9	85	7.3	0	0	---	0.00	30.426 
06:55	10.9	10.9	10.9	85	7.3	0	1	135	0.00	30.426 
07:00	11.1	11.1	11.1	85	7.5	0	0	---	0.00	30.427 
07:05	11.2	11.2	11.2	85	7.6	0	0	---	0.00	30.427 
07:10	11.2	11.2	11.2	85	7.6	0	0	---	0.00	30.427 
07:15	11.4	11.4	11.4	85	7.8	0	1	135	0.00	30.431 
07:20	11.4	11.4	11.4	85	7.8	0	2	135	0.00	30.431 
07:25	11.6	11.6	11.6	85	8.0	0	2	---	0.00	30.431 
07:30	11.4	11.4	11.4	85	7.8	0	1	135	0.00	30.427 
07:35	11.4	11.4	11.4	85	7.8	0	1	135	0.00	30.427 
07:40	11.4	11.4	11.4	85	7.8	0	0	---	0.00	30.427 
07:45	11.2	11.2	11.2	85	7.6	0	0	---	0.00	30.454 
07:50	11.2	11.2	11.2	85	7.6	0	0	---	0.00	30.454 
07:55	11.2	11.2	11.2	85	7.6	0	0	---	0.00	30.454 
08:00	11.4	11.4	11.4	85	7.8	0	0	---	0.00	30.456 
08:05	11.4	11.4	11.4	85	7.8	0	0	---	0.00	30.456 
08:10	11.6	11.6	11.6	85	8.0	0	0	---	0.00	30.456 
08:15	11.7	11.7	11.7	85	8.1	0	0	---	0.00	30.471 
08:20	11.9	11.9	11.9	85	8.3	0	1	135	0.00	30.471 
08:25	12.3	12.3	12.3	86	8.9	0	1	135	0.00	30.471 
08:30	12.6	12.6	12.6	86	9.2	0	1	135	0.00	30.474 
08:35	12.8	12.8	12.8	86	9.4	0	2	135	0.00	30.474 
08:40	13.1	13.1	13.1	85	9.5	0	2	135	0.00	30.474 
08:45	13.3	13.3	13.3	85	9.7	0	2	135	0.00	30.463 
08:50	13.3	13.3	13.3	85	9.7	0	2	135	0.00	30.463 
08:55	13.5	13.5	13.5	85	9.8	0	0	---	0.00	30.463 
09:00	13.5	13.5	13.5	85	9.8	0	0	---	0.00	30.479 
09:05	13.6	13.6	13.6	85	9.9	0	1	135	0.00	30.479 
09:10	13.8	13.8	13.8	85	10.1	1	3	135	0.00	30.479 
09:15	13.8	13.8	13.8	85	10.1	1	2	135	0.00	30.457 
09:20	14.0	14.0	14.0	85	10.3	1	4	135	0.00	30.457 
09:25	14.0	14.0	14.0	84	10.1	2	4	112	0.00	30.457 
09:30	14.0	14.0	14.0	85	10.3	0	2	112	0.00	30.447 
09:35	14.1	14.1	14.1	84	10.2	1	4	112	0.00	30.447 
09:40	14.3	14.3	14.3	84	10.4	2	4	112	0.00	30.447 
09:45	14.3	14.3	14.3	84	10.4	2	5	112	0.00	30.441 
09:50	14.4	14.4	14.4	84	10.5	2	5	90	0.00	30.441 
09:55	14.6	14.6	14.6	84	10.7	2	4	112	0.00	30.441 
10:00	14.6	14.6	14.6	83	10.4	1	4	112	0.00	30.441 
10:05	14.8	14.8	14.8	83	10.6	1	5	90	0.00	30.441 
10:10	15.1	15.1	15.1	83	10.9	1	3	90	0.00	30.441 
10:15	15.2	15.2	15.2	82	10.7	2	6	112	0.00	30.443 
10:20	15.4	15.4	15.4	81	10.6	2	4	112	0.00	30.443 
10:25	15.6	15.6	15.6	81	10.8	2	6	112	0.00	30.443 
10:30	15.7	15.7	15.7	80	10.6	2	6	112	0.00	30.442 
10:35	15.9	15.9	15.9	80	10.8	2	4	112	0.00	30.442 
10:40	16.2	16.2	16.2	80	11.1	0	2	112	0.00	30.442 
10:45	16.5	16.5	16.5	79	11.1	1	3	112	0.00	30.447 
10:50	16.9	16.9	16.9	79	11.5	0	2	112	0.00	30.447 
10:55	17.2	17.2	17.2	77	11.3	1	4	112	0.00	30.447 
11:00	17.2	17.2	17.2	77	11.3	2	4	112	0.00	30.447 
11:05	17.3	17.3	17.3	77	11.3	0	2	112	0.00	30.447 
11:10	17.7	17.7	17.7	77	11.7	0	1	112	0.00	30.447 
11:15	18.0	18.0	18.0	76	11.7	0	4	112	0.00	30.442 
11:20	18.3	18.3	18.3	76	12.0	0	3	112	0.00	30.442 
11:25	18.4	18.4	18.4	75	11.8	1	4	112	0.00	30.442 
11:30	18.1	18.1	18.1	75	11.5	2	5	112	0.00	30.428 
11:35	18.1	18.1	18.1	75	11.5	2	5	112	0.00	30.428 
11:40	18.1	18.1	18.1	75	11.5	2	4	112	0.00	30.428 
11:45	18.1	18.1	18.1	75	11.5	2	5	112	0.00	30.407 
11:50	18.1	18.1	18.1	75	11.5	2	6	112	0.00	30.407 
11:55	18.3	18.3	18.3	75	11.7	2	5	112	0.00	30.407 
12:00	18.4	18.4	18.4	74	11.5	2	6	90	0.00	30.397 
12:05	18.6	18.6	18.6	74	11.7	2	4	90	0.00	30.397 
12:10	18.8	18.8	18.8	74	11.9	2	5	112	0.00	30.397 
12:15	19.1	19.1	19.1	73	11.9	2	6	112	0.00	30.389 
12:20	19.1	19.1	19.1	74	12.2	2	6	112	0.00	30.389 
12:25	19.2	19.2	19.2	73	12.0	3	7	112	0.00	30.389 
12:30	19.4	19.4	19.4	73	12.2	2	7	112	0.00	30.361 
12:35	19.7	19.7	19.7	74	12.8	2	7	112	0.00	30.361 
12:40	19.9	19.9	19.9	73	12.7	2	7	112	0.00	30.361 
12:45	20.0	20.0	20.0	73	12.8	2	6	112	0.00	30.353 
12:50	20.3	20.3	20.3	73	13.1	1	3	90	0.00	30.353 
12:55	20.2	20.2	20.2	72	12.6	3	7	112	0.00	30.353 
13:00	20.3	20.3	20.3	73	13.1	0	2	112	0.00	30.359 
13:05	20.5	20.5	20.5	72	12.9	1	3	22	0.00	30.359 
13:10	20.6	20.6	20.6	72	13.0	1	4	90	0.00	30.359 
13:15	20.8	20.8	20.8	72	13.2	0	2	90	0.00	30.357 
13:20	21.0	21.0	21.0	72	13.4	1	3	90	0.00	30.357 
13:25	21.0	21.0	21.0	70	12.8	1	2	90	0.00	30.357 
13:30	21.0	21.0	21.0	70	12.8	0	2	90	0.00	30.361 
13:35	21.1	21.1	21.1	69	12.5	1	4	90	0.00	30.361 
13:40	21.1	21.1	21.1	69	12.5	1	3	90	0.00	30.361 
13:45	21.1	21.1	21.1	69	12.5	1	3	90	0.00	30.348 
13:50	21.3	21.3	21.3	69	12.7	1	3	90	0.00	30.348 
13:55	21.3	21.3	21.3	69	12.7	2	6	90	0.00	30.348 
14:00	21.3	21.3	21.3	68	12.4	0	2	90	0.00	30.346 
14:05	21.4	21.4	21.4	68	12.5	1	3	90	0.00	30.346 
14:10	21.4	21.4	21.4	67	12.2	0	2	90	0.00	30.346 
14:15	21.4	21.4	21.4	67	12.2	0	2	90	0.00	30.358 
14:20	21.4	21.4	21.4	67	12.2	0	2	90	0.00	30.358 
14:25	21.3	21.3	21.3	66	11.7	1	4	90	0.00	30.358 
14:30	21.1	21.1	21.1	67	11.9	2	5	90	0.00	30.344 
14:35	21.1	21.1	21.1	68	12.2	1	3	90	0.00	30.344 
14:40	21.1	21.1	21.1	68	12.2	1	5	90	0.00	30.344 
14:45	21.3	21.3	21.3	68	12.4	1	3	90	0.00	30.346 
14:50	21.1	21.1	21.1	67	11.9	2	5	90	0.00	30.346 
14:55	21.1	21.1	21.1	67	11.9	1	4	112	0.00	30.346 
15:00	21.1	21.1	21.1	68	12.2	2	5	112	0.00	30.339 
15:05	21.1	21.1	21.1	67	11.9	2	5	90	0.00	30.339 
15:10	21.1	21.1	21.1	68	12.2	2	5	90	0.00	30.339 
15:15	21.1	21.1	21.1	68	12.2	1	4	90	0.00	30.338 
15:20	21.1	21.1	21.1	68	12.2	2	7	112	0.00	30.338 
15:25	21.1	21.1	21.1	68	12.2	3	6	90	0.00	30.338 
15:30	21.1	21.1	21.1	68	12.2	3	6	112	0.00	30.328 
15:35	21.1	21.1	21.1	68	12.2	1	5	112	0.00	30.328 
15:40	21.1	21.1	21.1	68	12.2	0	3	112	0.00	30.328 
15:45	21.1	21.1	21.1	68	12.2	1	4	45	0.00	30.327 
15:50	21.1	21.1	21.1	68	12.2	0	3	45	0.00	30.327 
15:55	21.1	21.1	21.1	68	12.2	1	3	68	0.00	30.327 
16:00	21.1	21.1	21.1	68	12.2	2	6	90	0.00	30.327 
16:05	21.1	21.1	21.1	68	12.2	1	7	90	0.00	30.327 
16:10	21.1	21.1	21.1	68	12.2	1	6	90	0.00	30.327 
16:15	21.1	21.1	21.1	68	12.2	2	4	90	0.00	30.310 
16:20	21.3	21.3	21.3	68	12.4	1	3	68	0.00	30.310 
16:25	21.3	21.3	21.3	68	12.4	0	2	90	0.00	30.310 
16:30	21.3	21.3	21.3	68	12.4	1	3	90	0.00	30.308 
16:35	21.3	21.3	21.3	67	12.1	1	5	90	0.00	30.308 
16:40	21.3	21.3	21.3	67	12.1	1	5	90	0.00	30.308 
16:45	21.4	21.4	21.4	68	12.5	1	3	90	0.00	30.311 
16:50	21.4	21.4	21.4	68	12.5	1	6	90	0.00	30.311 
16:55	21.3	21.3	21.3	66	11.7	3	9	90	0.00	30.311 
17:00	21.3	21.3	21.3	67	12.1	2	7	112	0.00	30.298 
17:05	21.3	21.3	21.3	67	12.1	1	5	112	0.00	30.298 
17:10	21.3	21.3	21.3	67	12.1	3	7	112	0.00	30.298 
17:15	21.1	21.1	21.1	67	11.9	3	6	90	0.00	30.308 
17:20	21.1	21.1	21.1	69	12.5	1	4	90	0.00	30.308 
17:25	21.1	21.1	21.1	70	12.9	1	5	90	0.00	30.308 
17:30	21.0	21.0	21.0	72	13.4	2	6	112	0.00	30.310 
17:35	20.8	20.8	20.8	73	13.5	1	8	112	0.00	30.310 
17:40	20.6	20.6	20.6	74	13.7	1	5	68	0.00	30.310 
17:45	20.5	20.5	20.5	74	13.6	1	2	22	0.00	30.293 
17:50	20.5	20.5	20.5	75	13.9	1	4	112	0.00	30.293 
17:55	20.3	20.3	20.3	77	14.3	1	4	45	0.00	30.293 
18:00	20.3	20.3	20.3	78	14.6	1	4	112	0.00	30.293 
18:05	20.0	20.0	20.0	79	14.6	1	5	45	0.00	30.293 
18:10	19.9	19.9	19.9	80	14.7	1	4	90	0.00	30.293 
18:15	19.7	19.7	19.7	81	14.8	1	3	90	0.00	30.302 
18:20	19.7	19.7	19.7	82	15.1	1	4	90	0.00	30.302 
18:25	19.5	19.5	19.5	83	15.2	0	2	45	0.00	30.302 
18:30	19.5	19.5	19.5	83	15.2	0	2	68	0.00	30.308 
18:35	19.5	19.5	19.5	84	15.5	0	2	68	0.00	30.308 
18:40	19.4	19.4	19.4	84	15.4	0	3	0	0.00	30.308 
18:45	19.4	19.4	19.4	84	15.4	1	5	112	0.00	30.277 
18:50	19.2	19.2	19.2	85	15.4	1	4	45	0.00	30.277 
18:55	19.2	19.2	19.2	85	15.4	1	3	45	0.00	30.277 
19:00	19.2	19.2	19.2	85	15.4	1	4	112	0.00	30.260 
19:05	19.2	19.2	19.2	86	15.7	2	10	112	0.00	30.260 
19:10	19.1	19.1	19.1	86	15.6	2	10	112	0.00	30.260 
19:15	19.1	19.1	19.1	86	15.6	2	10	112	0.00	30.223 
19:20	19.1	19.1	19.1	87	15.9	3	15	112	0.00	30.223 
19:25	19.1	19.1	19.1	87	15.9	2	9	112	0.00	30.223 
19:30	19.2	19.2	19.2	87	16.0	2	6	112	0.00	30.240 
19:35	19.2	19.2	19.2	87	16.0	2	7	112	0.00	30.240 
19:40	19.2	19.2	19.2	87	16.0	2	9	90	0.00	30.240 
19:45	19.2	19.2	19.2	87	16.0	2	7	112	0.00	30.219 
19:50	19.2	19.2	19.2	87	16.0	1	4	90	0.00	30.219 
19:55	19.2	19.2	19.2	88	16.2	1	6	90	0.00	30.219 
20:00	19.2	19.2	19.2	88	16.2	1	5	112	0.00	30.226 
20:05	19.1	19.1	19.1	87	15.9	2	7	90	0.00	30.226 
20:10	19.1	19.1	19.1	87	15.9	3	9	68	0.00	30.226 
20:15	19.1	19.1	19.1	87	15.9	2	7	112	0.00	30.204 
20:20	19.1	19.1	19.1	87	15.9	2	6	112	0.00	30.204 
20:25	19.1	19.1	19.1	87	15.9	1	5	90	0.00	30.204 
20:30	19.1	19.1	19.1	87	15.9	2	5	112	0.00	30.199 
20:35	18.9	18.9	18.9	87	15.7	3	13	90	0.00	30.199 
20:40	18.9	18.9	18.9	87	15.7	1	5	90	0.00	30.199 
20:45	18.9	18.9	18.9	87	15.7	2	7	112	0.00	30.183 
20:50	18.9	18.9	18.9	87	15.7	3	11	90	0.00	30.183 
20:55	18.9	18.9	18.9	87	15.7	2	7	112	0.00	30.183 
21:00	18.9	18.9	18.9	87	15.7	1	5	90	0.00	30.152 
21:05	18.8	18.8	18.8	87	15.6	2	12	90	0.00	30.152 
21:10	18.8	18.8	18.8	87	15.6	3	9	112	0.00	30.152 
21:15	18.8	18.8	18.8	87	15.6	1	6	112	0.00	30.164 
21:20	18.8	18.8	18.8	87	15.6	2	10	90	0.00	30.164 
21:25	18.8	18.8	18.8	87	15.6	1	4	68	0.00	30.164 
21:30	18.8	18.8	18.8	88	15.8	1	6	90	0.00	30.142 
21:35	18.8	18.8	18.8	88	15.8	2	5	112	0.00	30.142 
21:40	18.8	18.8	18.8	88	15.8	2	10	112	0.00	30.142 
21:45	18.8	18.8	18.8	88	15.8	2	8	90	0.00	30.163 
21:50	18.9	18.9	18.9	87	15.7	1	4	90	0.00	30.163 
21:55	18.9	18.9	18.9	87	15.7	2	10	90	0.00	30.163 
22:00	19.1	19.1	19.1	87	15.9	3	10	90	0.00	30.148 
22:05	19.1	19.1	19.1	87	15.9	3	10	112	0.00	30.148 
22:10	19.1	19.1	19.1	87	15.9	3	11	112	0.00	30.148 
22:15	19.2	19.2	19.2	87	16.0	2	7	90	0.00	30.136 
22:20	19.2	19.2	19.2	87	16.0	2	7	112	0.00	30.136 
22:25	19.2	19.2	19.2	88	16.2	3	13	90	0.00	30.136 
22:30	19.4	19.4	19.4	88	16.4	3	8	112	0.00	30.122 
22:35	19.4	13.5	19.4	88	16.4	4	10	90	0.00	30.122 
22:40	19.4	19.4	19.4	88	16.4	2	7	90	0.00	30.122 
22:45	19.4	19.4	19.4	88	16.4	3	11	90	0.00	30.110 
22:50	19.4	19.4	19.4	88	16.4	3	10	112	0.00	30.110 
22:55	19.5	19.5	19.5	88	16.5	2	7	112	0.00	30.110 
23:00	19.5	19.5	19.5	88	16.5	2	10	90	0.00	30.093 
23:05	19.5	13.6	19.5	88	16.5	4	11	112	0.00	30.093 
23:10	19.7	19.7	19.7	88	16.7	3	11	90	0.00	30.093 
23:15	19.7	19.7	19.7	88	16.7	3	7	68	0.00	30.093 
23:20	19.7	19.7	19.7	88	16.7	3	11	112	0.00	30.093 
23:25	19.7	19.7	19.7	88	16.7	2	12	112	0.00	30.093 
23:30	19.7	13.9	19.7	88	16.7	4	11	90	0.00	30.080 
23:35	19.7	13.9	19.7	88	16.7	4	13	112	0.00	30.080 
23:40	19.7	12.6	19.7	88	16.7	5	9	112	0.00	30.080 
23:45	19.7	13.9	19.7	88	16.7	4	10	90	0.00	30.071 
23:50	19.7	12.6	19.7	88	16.7	5	15	112	0.00	30.071 
23:55	19.7	13.9	19.7	88	16.7	4	12	112	0.00	30.071 

CoCoRaHS
IN-AL-39
A2 Web Hosting
Creative Commons License
GoDaddy
search engine by freefind advanced

loaded 2018-11-13 02:07:03 • last modified 2010-11-18 10:43:29
Privacy PolicyDisclaimer
• wx.awcolley.com is powered by PmWiki v.2002016 •
• all content (unless otherwise noted) © 2018 A W Colley